createdAt,value
2022-11-17T00:02:00.264Z,66.16
2022-11-17T00:04:32.702Z,66.32
2022-11-17T00:07:05.205Z,66.54
2022-11-17T00:09:37.780Z,66.25
2022-11-17T00:12:32.567Z,66.22
2022-11-17T00:15:05.038Z,66.44
2022-11-17T00:17:37.186Z,66.75
2022-11-17T00:20:30.440Z,66.53
2022-11-17T00:23:02.638Z,66.49
2022-11-17T00:25:35.793Z,66.27
2022-11-17T00:28:07.985Z,66.00
2022-11-17T00:30:57.977Z,66.49
2022-11-17T00:33:47.968Z,66.34
2022-11-17T00:36:20.069Z,66.34
2022-11-17T00:38:52.661Z,66.49
2022-11-17T00:41:24.844Z,66.30
2022-11-17T00:43:56.858Z,66.67
2022-11-17T00:46:29.257Z,67.17
2022-11-17T00:49:01.745Z,66.83
2022-11-17T00:51:36.206Z,67.02
2022-11-17T00:54:09.539Z,67.04
2022-11-17T00:56:41.881Z,66.96
2022-11-17T00:59:14.042Z,66.40
2022-11-17T01:01:47.303Z,66.41
2022-11-17T01:04:19.645Z,66.53
2022-11-17T01:06:52.238Z,66.13
2022-11-17T01:09:25.925Z,65.58
2022-11-17T01:11:58.243Z,66.05
2022-11-17T01:14:32.727Z,66.03
2022-11-17T01:17:04.832Z,66.26
2022-11-17T01:19:36.959Z,66.21
2022-11-17T01:22:09.087Z,65.91
2022-11-17T01:24:41.375Z,65.76
2022-11-17T01:27:13.541Z,65.73
2022-11-17T01:29:45.534Z,65.74
2022-11-17T01:32:17.590Z,65.53
2022-11-17T01:34:50.246Z,65.73
2022-11-17T01:37:22.334Z,65.37
2022-11-17T01:39:54.674Z,65.32
2022-11-17T01:42:29.684Z,65.23
2022-11-17T01:45:05.366Z,65.38
2022-11-17T01:47:43.799Z,65.56
2022-11-17T01:50:29.498Z,65.34
2022-11-17T01:53:05.027Z,65.05
2022-11-17T01:55:39.910Z,65.18
2022-11-17T01:58:11.798Z,65.27
2022-11-17T02:00:43.898Z,65.56
2022-11-17T02:03:16.634Z,65.12
2022-11-17T02:05:55.276Z,64.99
2022-11-17T02:08:30.054Z,65.61
2022-11-17T02:11:04.988Z,65.45
2022-11-17T02:13:37.114Z,65.38
2022-11-17T02:16:14.094Z,65.54
2022-11-17T02:18:47.707Z,65.50
2022-11-17T02:21:42.846Z,65.97
2022-11-17T02:24:46.551Z,66.09
2022-11-17T02:27:51.250Z,66.22
2022-11-17T02:30:25.535Z,65.84
2022-11-17T02:33:04.889Z,65.27
2022-11-17T02:35:48.671Z,65.66
2022-11-17T02:38:29.588Z,65.52
2022-11-17T02:41:17.521Z,65.37
2022-11-17T02:44:06.808Z,65.22
2022-11-17T02:46:46.320Z,65.63
2022-11-17T02:49:25.484Z,65.75
2022-11-17T02:52:00.345Z,65.76
2022-11-17T02:54:34.459Z,65.59
2022-11-17T02:57:06.851Z,65.70
2022-11-17T02:59:44.106Z,65.74
2022-11-17T03:02:47.036Z,66.41
2022-11-17T03:05:26.779Z,65.76
2022-11-17T03:08:19.071Z,65.89
2022-11-17T03:10:58.367Z,65.93
2022-11-17T03:13:40.798Z,65.41
2022-11-17T03:16:26.531Z,65.25
2022-11-17T03:19:07.504Z,65.17
2022-11-17T03:21:46.324Z,65.21
2022-11-17T03:24:22.772Z,65.22
2022-11-17T03:26:58.132Z,64.88
2022-11-17T03:29:33.101Z,65.06
2022-11-17T03:32:08.231Z,65.25
2022-11-17T03:34:47.073Z,65.16
2022-11-17T03:37:21.029Z,64.84
2022-11-17T03:39:56.714Z,64.92
2022-11-17T03:42:31.988Z,65.46
2022-11-17T03:45:10.276Z,65.43
2022-11-17T03:47:43.722Z,65.22
2022-11-17T03:50:20.032Z,64.78
2022-11-17T03:52:53.046Z,65.04
2022-11-17T03:55:34.886Z,65.37
2022-11-17T03:58:10.803Z,64.98
2022-11-17T04:00:44.601Z,65.11
2022-11-17T04:03:17.640Z,65.55
2022-11-17T04:05:49.820Z,66.15
2022-11-17T04:08:24.123Z,65.79
2022-11-17T04:11:13.637Z,65.28
2022-11-17T04:14:03.539Z,65.75
2022-11-17T04:16:35.610Z,65.54
2022-11-17T04:19:08.092Z,65.24
2022-11-17T04:21:40.339Z,65.64
2022-11-17T04:24:12.660Z,65.56
2022-11-17T04:27:02.173Z,65.34
2022-11-17T04:29:34.991Z,65.62
2022-11-17T04:32:07.158Z,65.61
2022-11-17T04:34:41.733Z,65.57
2022-11-17T04:37:17.466Z,65.79
2022-11-17T04:39:50.359Z,65.49
2022-11-17T04:42:22.497Z,65.42
2022-11-17T04:44:54.637Z,65.25
2022-11-17T04:47:26.707Z,65.50
2022-11-17T04:49:59.205Z,65.45
2022-11-17T04:52:31.196Z,65.41
2022-11-17T04:55:03.218Z,65.36
2022-11-17T04:57:35.205Z,65.43
2022-11-17T05:00:09.854Z,65.34
2022-11-17T05:02:40.464Z,65.09
2022-11-17T05:05:12.830Z,65.44
2022-11-17T05:07:45.176Z,65.40
2022-11-17T05:10:37.598Z,65.06
2022-11-17T05:13:26.559Z,65.23
2022-11-17T05:16:18.140Z,65.07
2022-11-17T05:18:50.308Z,64.98
2022-11-17T05:21:22.725Z,65.21
2022-11-17T05:23:58.366Z,65.34
2022-11-17T05:26:34.332Z,65.29
2022-11-17T05:29:07.874Z,65.35
2022-11-17T05:31:40.772Z,65.11
2022-11-17T05:34:15.109Z,65.51
2022-11-17T05:36:47.583Z,65.49
2022-11-17T05:39:19.605Z,65.16
2022-11-17T05:41:51.682Z,65.10
2022-11-17T05:44:23.659Z,64.97
2022-11-17T05:46:59.675Z,65.36
2022-11-17T05:49:31.864Z,65.32
2022-11-17T05:52:04.286Z,65.30
2022-11-17T05:54:36.413Z,65.02
2022-11-17T05:57:12.367Z,65.56
2022-11-17T05:59:48.065Z,65.42
2022-11-17T06:02:26.929Z,65.64
2022-11-17T06:04:59.166Z,65.41
2022-11-17T06:07:31.480Z,65.17
2022-11-17T06:10:03.780Z,65.28
2022-11-17T06:12:36.028Z,65.69
2022-11-17T06:15:09.805Z,65.15
2022-11-17T06:17:47.383Z,65.32
2022-11-17T06:20:24.290Z,64.96
2022-11-17T06:23:06.210Z,64.75
2022-11-17T06:25:41.812Z,64.76
2022-11-17T06:28:18.240Z,64.53
2022-11-17T06:30:51.135Z,64.82
2022-11-17T06:33:23.517Z,65.03
2022-11-17T06:35:55.916Z,64.61
2022-11-17T06:38:29.501Z,64.63
2022-11-17T06:41:03.547Z,64.65
2022-11-17T06:43:37.500Z,64.59
2022-11-17T06:46:09.993Z,64.59
2022-11-17T06:48:42.154Z,64.59
2022-11-17T06:51:14.591Z,64.40
2022-11-17T06:53:47.310Z,64.74
2022-11-17T06:56:22.181Z,64.58
2022-11-17T06:58:55.981Z,65.12
2022-11-17T07:01:28.380Z,65.21
2022-11-17T07:04:00.492Z,64.83
2022-11-17T07:06:33.276Z,65.04
2022-11-17T07:09:05.696Z,64.86
2022-11-17T07:11:38.151Z,64.82
2022-11-17T07:14:10.413Z,64.54
2022-11-17T07:16:44.338Z,64.50
2022-11-17T07:19:16.454Z,64.31
2022-11-17T07:21:48.551Z,64.05
2022-11-17T07:24:21.395Z,63.96
2022-11-17T07:26:53.835Z,64.42
2022-11-17T07:29:26.064Z,64.35
2022-11-17T07:31:58.082Z,64.50
2022-11-17T07:34:30.254Z,64.40
2022-11-17T07:37:02.345Z,64.15
2022-11-17T07:39:34.551Z,64.18
2022-11-17T07:42:07.238Z,63.85
2022-11-17T07:44:39.819Z,63.84
2022-11-17T07:47:11.826Z,63.88
2022-11-17T07:49:43.889Z,63.53
2022-11-17T07:52:16.097Z,63.64
2022-11-17T07:54:48.615Z,63.22
2022-11-17T07:57:21.631Z,63.08
2022-11-17T07:59:53.688Z,63.01
2022-11-17T08:02:25.846Z,62.94
2022-11-17T08:04:58.055Z,63.26
2022-11-17T08:07:30.171Z,62.50
2022-11-17T08:10:02.371Z,62.46
2022-11-17T08:12:34.543Z,62.22
2022-11-17T08:15:08.017Z,61.79
2022-11-17T08:17:40.073Z,61.93
2022-11-17T08:20:13.799Z,61.53
2022-11-17T08:22:46.727Z,61.11
2022-11-17T08:25:19.761Z,60.99
2022-11-17T08:27:55.066Z,61.19
2022-11-17T08:30:28.755Z,61.24
2022-11-17T08:33:00.878Z,61.25
2022-11-17T08:35:37.340Z,61.04
2022-11-17T08:38:11.761Z,60.87
2022-11-17T08:40:43.949Z,61.10
2022-11-17T08:43:15.969Z,61.24
2022-11-17T08:45:48.112Z,60.95
2022-11-17T08:48:20.211Z,60.85
2022-11-17T08:50:52.946Z,61.18
2022-11-17T08:53:25.469Z,61.07
2022-11-17T08:55:58.034Z,60.51
2022-11-17T08:58:30.126Z,60.67
2022-11-17T09:01:05.360Z,60.65
2022-11-17T09:03:37.738Z,60.83
2022-11-17T09:06:10.110Z,60.60
2022-11-17T09:08:46.221Z,60.12
2022-11-17T09:11:28.166Z,60.89
2022-11-17T09:14:00.285Z,61.01
2022-11-17T09:16:32.485Z,61.43
2022-11-17T09:19:04.667Z,61.29
2022-11-17T09:21:36.743Z,61.07
2022-11-17T09:24:10.056Z,61.01
2022-11-17T09:26:43.393Z,60.69
2022-11-17T09:29:15.497Z,61.00
2022-11-17T09:31:47.758Z,60.66
2022-11-17T09:34:19.961Z,60.38
2022-11-17T09:36:52.113Z,60.04
2022-11-17T09:39:24.109Z,59.81
2022-11-17T09:41:58.225Z,60.28
2022-11-17T09:44:39.915Z,60.22
2022-11-17T09:47:20.445Z,60.42
2022-11-17T09:49:59.607Z,60.21
2022-11-17T09:52:36.689Z,59.88
2022-11-17T09:55:31.138Z,59.85
2022-11-17T09:58:19.636Z,59.88
2022-11-17T10:00:52.949Z,60.47
2022-11-17T10:03:29.551Z,59.95
2022-11-17T10:06:05.534Z,59.97
2022-11-17T10:08:41.917Z,59.59
2022-11-17T10:11:35.162Z,59.45
2022-11-17T10:14:17.614Z,59.42
2022-11-17T10:16:55.400Z,59.21
2022-11-17T10:19:29.707Z,59.49
2022-11-17T10:22:21.106Z,59.18
2022-11-17T10:24:58.001Z,58.54
2022-11-17T10:27:31.954Z,58.78
2022-11-17T10:30:07.214Z,58.94
2022-11-17T10:32:49.478Z,58.83
2022-11-17T10:35:24.119Z,59.06
2022-11-17T10:37:58.866Z,58.98
2022-11-17T10:40:31.331Z,58.89
2022-11-17T10:43:22.087Z,59.01
2022-11-17T10:45:57.251Z,59.03
2022-11-17T10:48:32.083Z,58.77
2022-11-17T10:51:03.706Z,58.57
2022-11-17T10:53:44.906Z,58.30
2022-11-17T10:56:21.845Z,58.29
2022-11-17T10:59:05.413Z,58.23
2022-11-17T11:01:40.132Z,58.61
2022-11-17T11:04:34.716Z,58.49
2022-11-17T11:07:12.768Z,58.77
2022-11-17T11:09:50.996Z,58.80
2022-11-17T11:12:32.535Z,58.83
2022-11-17T11:15:26.321Z,58.92
2022-11-17T11:17:59.704Z,59.01
2022-11-17T11:20:43.651Z,58.78
2022-11-17T11:23:23.914Z,58.76
2022-11-17T11:26:09.194Z,58.59
2022-11-17T11:28:52.793Z,59.13
2022-11-17T11:31:34.567Z,59.11
2022-11-17T11:34:24.854Z,58.73
2022-11-17T11:37:02.690Z,58.74
2022-11-17T11:39:47.980Z,58.70
2022-11-17T11:42:35.014Z,58.61
2022-11-17T11:45:18.690Z,58.54
2022-11-17T11:48:08.262Z,58.16
2022-11-17T11:50:50.050Z,58.39
2022-11-17T11:53:29.143Z,57.97
2022-11-17T11:56:13.717Z,57.71
2022-11-17T11:58:52.367Z,58.09
2022-11-17T12:01:25.673Z,58.08
2022-11-17T12:04:14.552Z,57.82
2022-11-17T12:06:54.156Z,58.13
2022-11-17T12:09:57.336Z,57.84
2022-11-17T12:12:33.810Z,57.61
2022-11-17T12:15:35.102Z,57.58
2022-11-17T12:18:14.676Z,57.41
2022-11-17T12:20:55.264Z,56.56
2022-11-17T12:23:50.834Z,56.93
2022-11-17T12:26:29.292Z,57.30
2022-11-17T12:29:34.031Z,57.37
2022-11-17T12:32:06.064Z,57.52
2022-11-17T12:34:38.703Z,57.42
2022-11-17T12:37:30.182Z,57.46
2022-11-17T12:40:04.931Z,57.40
2022-11-17T12:42:37.827Z,57.32
2022-11-17T12:45:11.478Z,57.23
2022-11-17T12:47:54.805Z,56.92
2022-11-17T12:51:04.443Z,57.02
2022-11-17T12:53:54.728Z,57.24
2022-11-17T12:56:53.127Z,57.21
2022-11-17T12:59:52.148Z,57.36
2022-11-17T13:02:38.646Z,57.06
2022-11-17T13:05:17.629Z,57.05
2022-11-17T13:07:50.239Z,57.25
2022-11-17T13:10:30.832Z,57.07
2022-11-17T13:13:18.938Z,57.09
2022-11-17T13:15:54.265Z,57.22
2022-11-17T13:18:32.965Z,56.89
2022-11-17T13:21:05.904Z,56.74
2022-11-17T13:23:44.004Z,56.60
2022-11-17T13:26:23.944Z,56.96
2022-11-17T13:29:07.699Z,56.89
2022-11-17T13:31:39.821Z,56.92
2022-11-17T13:34:18.980Z,56.69
2022-11-17T13:36:58.186Z,56.95
2022-11-17T13:39:31.189Z,57.10
2022-11-17T13:42:04.250Z,57.27
2022-11-17T13:44:36.627Z,56.92
2022-11-17T13:47:23.095Z,57.02
2022-11-17T13:49:54.947Z,57.07
2022-11-17T13:52:41.994Z,57.13
2022-11-17T13:55:21.606Z,57.42
2022-11-17T13:58:01.866Z,57.56
2022-11-17T14:00:34.655Z,57.40
2022-11-17T14:03:29.447Z,57.55
2022-11-17T14:06:01.240Z,57.53
2022-11-17T14:08:34.591Z,57.41
2022-11-17T14:11:23.939Z,57.37
2022-11-17T14:13:58.900Z,57.13
2022-11-17T14:16:34.704Z,56.79
2022-11-17T14:19:26.441Z,56.82
2022-11-17T14:22:04.837Z,56.66
2022-11-17T14:24:37.607Z,56.90
2022-11-17T14:27:15.727Z,56.76
2022-11-17T14:29:47.441Z,56.76
2022-11-17T14:32:19.200Z,56.77
2022-11-17T14:34:51.296Z,56.74
2022-11-17T14:37:23.017Z,56.90
2022-11-17T14:39:54.755Z,57.16
2022-11-17T14:42:28.343Z,57.14
2022-11-17T14:45:02.012Z,57.22
2022-11-17T14:47:33.818Z,57.00
2022-11-17T14:50:06.458Z,56.73
2022-11-17T14:52:39.667Z,57.25
2022-11-17T14:55:12.354Z,57.26
2022-11-17T14:57:44.109Z,57.13
2022-11-17T15:00:20.551Z,57.34
2022-11-17T15:02:52.982Z,57.39
2022-11-17T15:05:24.681Z,57.40
2022-11-17T15:07:57.965Z,57.65
2022-11-17T15:10:29.739Z,58.05
2022-11-17T15:13:02.003Z,57.94
2022-11-17T15:15:33.694Z,57.75
2022-11-17T15:18:05.677Z,57.73
2022-11-17T15:20:37.445Z,58.06
2022-11-17T15:23:09.269Z,58.11
2022-11-17T15:25:41.269Z,57.94
2022-11-17T15:28:18.907Z,58.28
2022-11-17T15:30:53.483Z,58.16
2022-11-17T15:33:25.474Z,57.76
2022-11-17T15:36:05.262Z,58.06
2022-11-17T15:38:37.442Z,58.30
2022-11-17T15:41:11.304Z,58.33
2022-11-17T15:43:45.051Z,58.64
2022-11-17T15:46:18.750Z,58.47
2022-11-17T15:48:53.949Z,58.48
2022-11-17T15:51:28.127Z,58.41
2022-11-17T15:54:01.394Z,58.19
2022-11-17T15:56:36.903Z,58.22
2022-11-17T15:59:11.826Z,57.78
2022-11-17T16:01:43.965Z,57.93
2022-11-17T16:04:16.859Z,57.72
2022-11-17T16:06:48.962Z,57.91
2022-11-17T16:09:23.389Z,57.63
2022-11-17T16:13:09.248Z,57.18
2022-11-17T16:16:27.529Z,57.45
2022-11-17T16:19:58.635Z,57.46
2022-11-17T16:23:46.585Z,57.58
2022-11-17T16:29:44.204Z,57.46
2022-11-17T16:32:16.101Z,57.12
2022-11-17T16:34:49.832Z,57.03
2022-11-17T16:37:21.599Z,57.53
2022-11-17T16:39:53.691Z,57.13
2022-11-17T16:42:26.154Z,57.38
2022-11-17T16:44:57.930Z,57.21
2022-11-17T16:47:30.139Z,57.29
2022-11-17T16:50:03.622Z,57.28
2022-11-17T16:52:36.340Z,56.94
2022-11-17T16:55:09.547Z,57.01
2022-11-17T16:57:41.576Z,57.16
2022-11-17T17:00:18.460Z,57.33
2022-11-17T17:02:52.447Z,57.48
2022-11-17T17:05:24.460Z,57.60
2022-11-17T17:07:56.661Z,57.47
2022-11-17T17:10:28.575Z,57.29
2022-11-17T17:13:00.674Z,57.31
2022-11-17T17:15:33.741Z,57.31
2022-11-17T17:18:06.224Z,57.39
2022-11-17T17:20:38.324Z,57.04
2022-11-17T17:23:10.107Z,56.70
2022-11-17T17:25:41.834Z,57.06
2022-11-17T17:28:13.907Z,56.94
2022-11-17T17:30:53.814Z,56.77
2022-11-17T17:33:25.648Z,56.83
2022-11-17T17:36:01.883Z,56.80
2022-11-17T17:38:34.142Z,56.78
2022-11-17T17:41:10.748Z,56.75
2022-11-17T17:43:43.905Z,56.72
2022-11-17T17:46:17.458Z,56.90
2022-11-17T17:48:49.578Z,57.02
2022-11-17T17:51:24.048Z,56.80
2022-11-17T17:53:58.337Z,56.70
2022-11-17T17:56:31.452Z,56.81
2022-11-17T17:59:03.340Z,57.00
2022-11-17T18:01:37.406Z,56.73
2022-11-17T18:04:15.278Z,56.45
2022-11-17T18:06:48.911Z,56.54
2022-11-17T18:09:21.137Z,56.45
2022-11-17T18:11:53.056Z,56.79
2022-11-17T18:14:25.161Z,56.86
2022-11-17T18:16:57.117Z,56.73
2022-11-17T18:19:33.220Z,56.54
2022-11-17T18:22:05.252Z,56.64
2022-11-17T18:24:36.951Z,56.83
2022-11-17T18:27:09.039Z,56.82
2022-11-17T18:29:40.800Z,56.76
2022-11-17T18:32:12.551Z,56.64
2022-11-17T18:34:44.519Z,56.49
2022-11-17T18:37:16.682Z,56.75
2022-11-17T18:39:48.824Z,56.94
2022-11-17T18:42:20.553Z,56.73
2022-11-17T18:44:52.455Z,56.73
2022-11-17T18:47:24.201Z,57.00
2022-11-17T18:49:56.495Z,57.04
2022-11-17T18:52:31.391Z,57.28
2022-11-17T18:55:03.806Z,57.23
2022-11-17T18:57:35.585Z,57.07
2022-11-17T19:00:09.696Z,57.03
2022-11-17T19:02:41.592Z,56.92
2022-11-17T19:05:13.490Z,57.16
2022-11-17T19:07:45.229Z,57.20
2022-11-17T19:10:17.780Z,57.44
2022-11-17T19:12:49.466Z,57.43
2022-11-17T19:15:21.466Z,57.61
2022-11-17T19:17:53.339Z,57.35
2022-11-17T19:20:27.381Z,57.18
2022-11-17T19:22:59.194Z,57.32
2022-11-17T19:25:41.038Z,57.03
2022-11-17T19:28:15.643Z,57.32
2022-11-17T19:30:47.453Z,57.26
2022-11-17T19:33:19.186Z,57.03
2022-11-17T19:35:51.508Z,57.23
2022-11-17T19:38:23.229Z,57.53
2022-11-17T19:40:55.124Z,57.30
2022-11-17T19:43:26.931Z,57.40
2022-11-17T19:46:01.677Z,57.35
2022-11-17T19:48:33.947Z,57.65
2022-11-17T19:51:15.763Z,57.53
2022-11-17T19:53:47.989Z,57.70
2022-11-17T19:56:21.143Z,57.72
2022-11-17T19:58:53.844Z,57.59
2022-11-17T20:01:27.984Z,57.69
2022-11-17T20:04:01.475Z,57.37
2022-11-17T20:06:37.765Z,57.42
2022-11-17T20:09:11.169Z,57.84
2022-11-17T20:11:43.554Z,57.75
2022-11-17T20:14:15.463Z,57.97
2022-11-17T20:16:47.348Z,57.95
2022-11-17T20:19:19.253Z,57.91
2022-11-17T20:21:51.581Z,58.01
2022-11-17T20:24:23.441Z,58.00
2022-11-17T20:26:55.285Z,57.96
2022-11-17T20:29:27.133Z,58.05
2022-11-17T20:31:58.926Z,57.92
2022-11-17T20:34:31.601Z,57.53
2022-11-17T20:37:03.961Z,57.32
2022-11-17T20:39:35.801Z,57.45
2022-11-17T20:42:08.125Z,57.53
2022-11-17T20:44:39.920Z,57.79
2022-11-17T20:47:12.286Z,57.51
2022-11-17T20:49:44.854Z,57.60
2022-11-17T20:52:17.657Z,57.91
2022-11-17T20:54:49.639Z,57.75
2022-11-17T20:57:22.089Z,57.55
2022-11-17T20:59:54.309Z,57.30
2022-11-17T21:02:26.654Z,57.36
2022-11-17T21:04:58.758Z,57.44
2022-11-17T21:07:30.876Z,57.53
2022-11-17T21:10:02.923Z,57.79
2022-11-17T21:12:34.825Z,57.54
2022-11-17T21:15:08.199Z,57.42
2022-11-17T21:17:58.036Z,57.55
2022-11-17T21:20:30.036Z,57.47
2022-11-17T21:23:02.301Z,57.54
2022-11-17T21:25:36.122Z,57.42
2022-11-17T21:28:08.354Z,57.43
2022-11-17T21:30:40.228Z,57.24
2022-11-17T21:33:12.164Z,56.89
2022-11-17T21:35:43.904Z,56.98
2022-11-17T21:38:15.829Z,56.94
2022-11-17T21:40:47.697Z,57.11
2022-11-17T21:43:19.583Z,57.37
2022-11-17T21:45:51.348Z,57.34
2022-11-17T21:48:23.231Z,57.14
2022-11-17T21:50:55.768Z,57.42
2022-11-17T21:53:28.498Z,57.72
2022-11-17T21:56:04.067Z,57.94
2022-11-17T21:58:36.191Z,57.96
2022-11-17T22:01:12.879Z,57.89
2022-11-17T22:03:45.377Z,57.66
2022-11-17T22:06:19.026Z,57.63
2022-11-17T22:08:51.655Z,58.00
2022-11-17T22:11:36.493Z,57.64
2022-11-17T22:14:11.246Z,57.31
2022-11-17T22:16:44.483Z,57.64
2022-11-17T22:19:18.188Z,57.70
2022-11-17T22:21:52.633Z,57.79
2022-11-17T22:24:24.833Z,58.19
2022-11-17T22:26:56.788Z,58.11
2022-11-17T22:29:28.668Z,58.19
2022-11-17T22:32:00.466Z,57.93
2022-11-17T22:34:32.402Z,57.91
2022-11-17T22:37:04.435Z,58.02
2022-11-17T22:39:36.311Z,57.91
2022-11-17T22:42:08.580Z,57.51
2022-11-17T22:44:40.442Z,57.56
2022-11-17T22:47:12.211Z,57.54
2022-11-17T22:49:44.143Z,57.49
2022-11-17T22:52:15.858Z,57.28
2022-11-17T22:54:47.986Z,57.32
2022-11-17T22:57:19.794Z,57.43
2022-11-17T23:10:41.215Z,57.39
2022-11-17T23:13:44.659Z,57.13
2022-11-17T23:16:25.298Z,57.30
2022-11-17T23:19:37.418Z,57.67
2022-11-17T23:22:11.849Z,57.68
2022-11-17T23:24:43.739Z,57.86
2022-11-17T23:27:15.840Z,57.82
2022-11-17T23:29:47.875Z,57.98
2022-11-17T23:32:19.790Z,57.88
2022-11-17T23:34:51.716Z,57.61
2022-11-17T23:37:23.615Z,57.91
2022-11-17T23:39:55.511Z,58.18
2022-11-17T23:42:31.497Z,58.69
2022-11-17T23:45:04.890Z,58.53
2022-11-17T23:47:36.586Z,58.28
2022-11-17T23:50:09.901Z,58.48
2022-11-17T23:52:41.791Z,58.54
2022-11-17T23:55:14.292Z,58.45
2022-11-17T23:57:46.465Z,58.44
